Latest Weather Observations for Newman Airport

IDW60801

Issued at 11:03 pm WST Sunday 26 June 2016 (issued every 30 minutes, with the page automatically refreshed every 10 minutes)

About weather observations | Map of weather stations | Latest weather observations for WA | Other Formats
Station Details ID: 007176 Name: NEWMAN AERO Lat: -23.42 Lon: 119.80 Height: 524.0 m
Data from the previous 72 hours. | See also: Recent months at Newman Airport
Date/Time
WST
Temp
°C
App
Temp
°C
Dew
Point
°C
Rel
Hum
%
Delta-T
°C
Wind Press
QNH
hPa
Press
MSL
hPa
Rain since
9am
mm
Dir  Spd
km/h
Gust
km/h
Spd
kts
Gust
kts
26/11:00pm 9.3 7.0 5.9 79 1.6 E 7 9 4 5 1021.8 1020.8 0.0
26/10:30pm 9.8 7.7 5.6 75 2.0 ESE 6 9 3 5 1022.1 1021.1 0.0
26/10:00pm 10.3 8.6 5.9 74 2.1 ESE 4 9 2 5 1022.1 1021.1 0.0
26/09:30pm 10.9 8.8 5.9 71 2.4 E 6 9 3 5 1022.1 1021.1 0.0
26/09:00pm 11.5 8.8 5.6 67 2.8 ESE 9 11 5 6 1022.1 1021.1 0.0
26/08:30pm 11.9 9.7 5.5 65 3.1 ESE 6 9 3 5 1022.0 1021.0 0.0
26/08:00pm 12.4 9.7 5.6 63 3.3 ESE 9 11 5 6 1021.8 1020.8 0.0
26/07:30pm 12.9 10.2 5.8 62 3.4 ESE 9 13 5 7 1021.6 1020.6 0.0
26/07:00pm 13.9 10.4 5.5 57 4.1 SE 13 17 7 9 1021.2 1020.3 0.0
26/06:30pm 14.3 10.8 5.4 55 4.3 SE 13 17 7 9 1020.9 1020.0 0.0
26/06:00pm 14.7 11.2 5.5 54 4.5 ESE 13 15 7 8 1020.7 1019.8 0.0
26/05:30pm 16.0 12.4 5.0 48 5.4 ESE 13 17 7 9 1020.6 1019.7 0.0
26/05:00pm 17.1 13.3 5.7 47 5.7 ESE 15 20 8 11 1020.4 1019.4 0.0
26/04:30pm 17.5 13.2 5.4 45 6.0 ESE 17 22 9 12 1020.2 1019.2 0.0
26/04:00pm 18.0 13.6 4.6 41 6.6 ESE 17 28 9 15 1020.2 1019.2 0.0
26/03:30pm 18.0 13.2 4.6 41 6.6 ESE 19 28 10 15 1020.3 1019.3 0.0
26/03:00pm 17.9 13.1 5.5 44 6.2 E 20 28 11 15 1020.3 1019.3 0.0
26/02:30pm 17.6 13.8 5.9 46 5.9 E 15 24 8 13 1020.3 1019.3 0.0
26/02:00pm 17.8 12.9 5.1 43 6.3 E 20 32 11 17 1020.3 1019.3 0.0
26/01:30pm 17.7 13.0 5.0 43 6.3 E 19 32 10 17 1020.4 1019.4 0.0
26/01:00pm 17.3 13.0 5.3 45 5.9 E 17 28 9 15 1020.6 1019.7 0.0
26/12:30pm 16.8 11.7 6.0 49 5.4 E 22 30 12 16 1020.9 1020.0 0.0
26/12:00pm 16.3 10.6 5.0 47 5.5 E 24 33 13 18 1021.1 1020.2 0.0
26/11:30am 15.8 10.4 6.5 54 4.7 E 24 35 13 19 1021.7 1020.7 0.0
26/11:00am 15.1 10.0 6.1 55 4.4 E 22 33 12 18 1022.2 1021.3 0.0
26/10:30am 14.2 9.8 7.3 63 3.5 E 20 32 11 17 1022.5 1021.6 0.0
26/10:00am 13.6 10.6 9.3 75 2.2 ESE 15 24 8 13 1022.7 1021.8 0.0
26/09:30am 12.6 9.8 8.7 77 2.0 E 13 20 7 11 1022.7 1021.8 0.0
26/09:00am 11.3 9.9 9.4 88 1.0 NNW 7 9 4 5 1022.6 1021.7 5.4
26/08:30am 9.6 9.3 8.7 94 0.5 CALM 0 6 0 3 1022.5 1021.6 5.4
26/08:03am 9.0 8.8 8.9 99 0.1 CALM 0 0 0 0 1022.2 1021.3 5.4
26/08:00am 8.7 8.4 8.6 99 0.0 CALM 0 0 0 0 1022.2 1021.3 5.4
26/07:30am 7.5 6.9 7.2 98 0.1 CALM 0 0 0 0 1021.7 1020.7 5.2
26/07:00am 7.0 6.2 6.7 98 0.1 CALM 0 0 0 0 1021.6 1020.6 5.2
26/06:54am 7.2 6.5 6.9 98 0.1 CALM 0 0 0 0 1021.5 1020.5 5.2
26/06:43am 7.3 6.6 7.0 98 0.1 CALM 0 0 0 0 1021.3 1020.4 5.2
26/06:30am 7.5 6.9 7.2 98 0.1 CALM 0 0 0 0 1021.1 1020.2 5.2
26/06:05am 7.7 7.1 7.4 98 0.1 CALM 0 0 0 0 1020.9 1020.0 5.2
26/06:00am 7.9 7.3 7.6 98 0.1 CALM 0 0 0 0 1020.9 1020.0 5.2
26/05:30am 8.0 6.3 7.7 98 0.1 S 6 7 3 4 1020.6 1019.7 5.2
26/05:00am 8.5 6.8 8.2 98 0.1 S 7 9 4 5 1020.5 1019.6 5.2
26/04:30am 8.5 6.8 8.2 98 0.1 S 7 9 4 5 1020.5 1019.6 5.2
26/04:00am 8.9 7.3 8.6 98 0.1 S 7 9 4 5 1020.6 1019.7 5.2
26/03:30am 9.1 7.1 8.8 98 0.2 S 9 11 5 6 1020.6 1019.7 5.2
26/03:00am 9.3 7.7 8.8 97 0.3 S 7 9 4 5 1020.5 1019.6 5.2
26/02:30am 9.6 8.1 9.3 98 0.2 S 7 9 4 5 1020.3 1019.3 5.2
26/02:00am 9.8 8.3 9.3 97 0.3 S 7 11 4 6 1020.4 1019.4 5.2
26/01:30am 10.2 8.5 9.7 97 0.3 SSE 9 13 5 7 1020.4 1019.4 5.2
26/01:00am 10.7 9.1 10.2 97 0.3 SSE 9 13 5 7 1020.4 1019.4 5.2
26/12:30am 10.9 8.9 10.3 96 0.3 SSE 11 15 6 8 1020.3 1019.3 5.2
26/12:00am 10.6 8.6 10.1 97 0.3 S 11 13 6 7 1020.4 1019.4 5.2
 
Date/Time
WST
Temp
°C
App
Temp
°C
Dew
Point
°C
Rel
Hum
%
Delta-T
°C
Wind Press
QNH
hPa
Press
MSL
hPa
Rain since
9am
mm
Dir  Spd
km/h
Gust
km/h
Spd
kts
Gust
kts
25/11:30pm 10.3 9.0 9.8 97 0.3 SSW 7 7 4 4 1020.3 1019.3 5.0
25/11:00pm 10.5 9.4 10.0 97 0.3 SSW 6 6 3 3 1020.3 1019.3 5.0
25/10:30pm 11.3 10.4 10.7 96 0.3 SE 6 9 3 5 1020.3 1019.3 5.0
25/10:00pm 11.7 10.7 11.1 96 0.3 SE 7 9 4 5 1020.1 1019.1 5.0
25/09:30pm 11.8 11.0 11.0 95 0.4 S 6 7 3 4 1020.4 1019.4 5.0
25/09:00pm 12.4 11.5 11.5 94 0.5 S 7 9 4 5 1020.2 1019.2 5.0
25/08:30pm 13.4 12.3 12.0 91 0.8 SSE 9 11 5 6 1020.0 1019.0 5.0
25/08:00pm 13.9 12.9 12.3 90 0.9 SSE 9 13 5 7 1019.9 1018.9 5.0
25/07:30pm 14.7 12.3 12.7 88 1.1 SSE 17 22 9 12 1019.6 1018.6 5.0
25/07:00pm 15.4 13.1 13.1 86 1.3 SSE 17 24 9 13 1019.1 1018.2 5.0
25/06:30pm 15.6 15.5 13.8 89 1.0 S 7 9 4 5 1018.9 1018.0 5.0
25/06:03pm 15.7 15.5 13.7 88 1.2 S 7 9 4 5 1018.4 1017.4 5.0
25/06:00pm 15.7 15.5 13.7 88 1.2 S 7 9 4 5 1018.3 1017.3 5.0
25/05:30pm 15.9 15.7 13.6 86 1.3 S 7 11 4 6 1017.8 1016.8 5.0
25/05:18pm 15.9 15.4 13.7 87 1.3 S 9 11 5 6 1017.6 1016.6 5.0
25/05:10pm 16.0 15.5 13.8 87 1.3 S 9 11 5 6 1017.5 1016.5 5.0
25/05:00pm 16.1 15.6 13.8 86 1.3 SSE 9 15 5 8 1017.4 1016.4 5.0
25/04:35pm 15.9 15.4 13.9 88 1.2 SSE 9 13 5 7 1017.0 1016.0 5.0
25/04:30pm 15.9 15.5 14.1 89 1.0 SSE 9 13 5 7 1017.0 1016.0 5.0
25/04:00pm 15.5 14.7 13.9 90 0.9 SSW 11 15 6 8 1016.7 1015.7 5.0
25/03:33pm 15.7 14.9 13.9 89 1.0 SSW 11 15 6 8 1016.4 1015.4 5.0
25/03:30pm 15.7 15.3 14.2 91 0.9 SSW 9 15 5 8 1016.4 1015.4 5.0
25/03:23pm 15.6 15.4 14.8 95 0.5 SSW 9 13 5 7 1016.4 1015.4 5.0
25/03:00pm 14.8 13.6 14.0 95 0.5 S 13 19 7 10 1016.3 1015.3 5.0
25/02:30pm 15.1 13.9 14.0 93 0.6 S 13 15 7 8 1016.3 1015.3 5.0
25/02:28pm 15.1 14.3 14.0 93 0.6 S 11 15 6 8 1016.3 1015.3 5.0
25/02:24pm 15.3 14.6 14.2 93 0.6 S 11 15 6 8 1016.3 1015.3 5.0
25/02:14pm 15.3 14.6 14.2 93 0.6 S 11 15 6 8 1016.4 1015.4 5.0
25/02:00pm 15.4 14.5 13.6 89 1.0 S 11 15 6 8 1016.3 1015.3 5.0
25/01:30pm 15.3 14.8 13.7 90 0.9 S 9 13 5 7 1016.3 1015.3 5.0
25/01:00pm 15.1 14.5 13.6 91 0.9 S 9 13 5 7 1016.6 1015.6 5.0
25/12:30pm 14.5 13.8 13.2 92 0.7 S 9 11 5 6 1017.0 1016.0 5.0
25/12:00pm 14.2 14.0 13.1 93 0.6 SW 6 7 3 4 1017.1 1016.1 4.8
25/11:30am 14.1 14.6 12.8 92 0.7 SSE 2 7 1 4 1017.4 1016.4 4.8
25/11:00am 13.6 14.1 12.8 95 0.4 N 2 7 1 4 1017.6 1016.6 4.2
25/10:36am 13.3 12.8 12.5 95 0.4 E 7 11 4 6 1017.5 1016.5 3.4
25/10:30am 13.2 12.6 12.4 95 0.4 ESE 7 9 4 5 1017.7 1016.7 3.4
25/10:25am 13.1 12.5 12.3 95 0.4 SE 7 9 4 5 1017.8 1016.8 3.4
25/10:07am 13.1 12.6 12.5 96 0.3 S 7 11 4 6 1018.0 1017.0 3.0
25/10:00am 13.0 12.0 12.4 96 0.3 SSE 9 13 5 7 1018.1 1017.1 2.8
25/09:48am 13.0 12.0 12.2 95 0.4 SSE 9 11 5 6 1018.1 1017.1 2.8
25/09:30am 12.9 12.5 12.3 96 0.3 SSE 6 7 3 4 1018.3 1017.3 2.4
25/09:02am 12.7 12.2 12.1 96 0.3 SSE 6 9 3 5 1018.4 1017.4 0.2
25/09:00am 12.7 12.2 12.1 96 0.3 SSE 6 9 3 5 1018.3 1017.3 14.0
25/08:30am 12.4 10.5 11.8 96 0.3 SSE 13 17 7 9 1018.0 1017.0 13.8
25/08:04am 12.6 11.5 12.1 97 0.3 SSE 9 13 5 7 1017.7 1016.7 13.6
25/08:00am 12.5 11.8 12.0 97 0.3 SE 7 11 4 6 1017.8 1016.8 13.6
25/07:30am 12.3 11.5 11.8 97 0.3 SSE 7 11 4 6 1017.7 1016.7 11.4
25/07:18am 12.4 11.7 11.9 97 0.3 ESE 7 11 4 6 1016.7 1015.7 10.6
25/07:00am 12.3 11.2 11.8 97 0.3 ESE 9 13 5 7 1016.6 1015.6 10.4
25/06:37am 12.4 11.7 11.9 97 0.3 S 7 11 4 6 1016.9 1015.9 9.2
25/06:34am 12.5 11.8 12.0 97 0.3 SSE 7 9 4 5 1016.9 1015.9 8.6
25/06:30am 12.4 11.7 11.9 97 0.3 SSE 7 9 4 5 1016.7 1015.7 8.6
25/06:00am 12.4 11.7 11.9 97 0.3 SE 7 9 4 5 1016.3 1015.3 7.0
25/05:30am 12.5 12.0 11.9 96 0.3 SE 6 7 3 4 1016.1 1015.1 5.6
25/05:00am 12.4 11.6 11.8 96 0.3 ESE 7 9 4 5 1015.8 1014.8 4.6
25/04:56am 12.4 11.6 11.6 95 0.4 ESE 7 11 4 6 1015.8 1014.8 4.6
25/04:32am 12.6 11.9 12.0 96 0.3 SE 7 11 4 6 1015.8 1014.8 4.2
25/04:30am 12.5 11.7 11.7 95 0.4 SE 7 11 4 6 1015.8 1014.8 4.2
25/04:10am 12.5 11.3 11.7 95 0.4 SSE 9 11 5 6 1015.8 1014.8 3.8
25/04:00am 12.5 11.7 11.7 95 0.4 SE 7 9 4 5 1015.8 1014.8 3.8
25/03:48am 12.6 11.5 11.8 95 0.4 S 9 11 5 6 1015.9 1014.9 3.6
25/03:39am 12.6 11.8 11.8 95 0.4 S 7 11 4 6 1016.1 1015.1 3.4
25/03:30am 12.6 11.8 11.8 95 0.4 S 7 9 4 5 1016.0 1015.0 3.2
25/03:21am 12.7 12.0 11.9 95 0.4 S 7 9 4 5 1015.9 1014.9 3.0
25/03:00am 12.8 11.6 11.7 93 0.6 SSE 9 11 5 6 1015.6 1014.6 2.2
25/02:30am 12.8 12.2 11.7 93 0.6 ESE 6 9 3 5 1015.6 1014.6 2.2
25/02:00am 12.9 13.4 11.6 92 0.7 CALM 0 6 0 3 1016.0 1015.0 2.0
25/01:30am 12.8 12.1 11.4 91 0.8 E 6 9 3 5 1016.1 1015.1 2.0
25/01:00am 12.8 11.9 11.5 92 0.7 ENE 7 9 4 5 1016.4 1015.4 2.0
25/12:30am 12.6 11.9 11.5 93 0.6 ESE 6 11 3 6 1016.5 1015.5 2.0
25/12:00am 12.7 11.4 11.4 92 0.7 SE 9 11 5 6 1017.0 1016.0 2.0
 
Date/Time
WST
Temp
°C
App
Temp
°C
Dew
Point
°C
Rel
Hum
%
Delta-T
°C
Wind Press
QNH
hPa
Press
MSL
hPa
Rain since
9am
mm
Dir  Spd
km/h
Gust
km/h
Spd
kts
Gust
kts
24/11:30pm 13.0 11.8 11.6 91 0.8 SSE 9 11 5 6 1017.6 1016.6 1.6
24/11:00pm 13.6 12.7 11.3 86 1.3 SE 7 9 4 5 1017.8 1016.8 1.2
24/10:30pm 14.8 13.8 10.2 74 2.5 ESE 6 9 3 5 1018.0 1017.0 0.2
24/10:00pm 15.7 14.3 8.9 64 3.6 E 6 9 3 5 1017.7 1016.7 0.0
24/09:30pm 15.8 13.9 9.2 65 3.5 ENE 9 13 5 7 1017.5 1016.5 0.0
24/09:00pm 15.7 13.8 8.9 64 3.6 ENE 9 13 5 7 1017.4 1016.4 0.0
24/08:30pm 15.8 14.3 9.2 65 3.5 NE 7 11 4 6 1017.6 1016.6 0.0
24/08:00pm 15.8 13.5 9.0 64 3.6 NE 11 15 6 8 1017.1 1016.1 0.0
24/07:30pm 15.9 13.6 9.1 64 3.6 ENE 11 15 6 8 1017.1 1016.1 0.0
24/07:00pm 16.0 13.8 9.2 64 3.6 NE 11 15 6 8 1017.1 1016.1 0.0
24/06:30pm 16.1 13.4 9.1 63 3.7 NE 13 19 7 10 1016.8 1015.8 0.0
24/06:00pm 16.2 13.6 9.4 64 3.6 NE 13 17 7 9 1016.7 1015.7 0.0
24/05:30pm 16.3 13.3 9.3 63 3.7 ENE 15 19 8 10 1016.6 1015.6 0.0
24/05:00pm 16.6 13.6 9.3 62 3.9 ENE 15 20 8 11 1016.2 1015.2 0.0
24/04:30pm 16.9 14.4 9.8 63 3.8 ENE 13 19 7 10 1016.1 1015.1 0.0
24/04:00pm 17.0 14.8 9.4 61 4.1 NE 11 15 6 8 1016.1 1015.1 0.0
24/03:30pm 17.0 14.0 9.2 60 4.2 NE 15 19 8 10 1015.8 1014.8 0.0
24/03:00pm 17.3 14.4 9.5 60 4.2 NE 15 20 8 11 1015.7 1014.7 0.0
24/02:30pm 17.3 14.5 8.7 57 4.6 ENE 13 20 7 11 1015.8 1014.8 0.0
24/02:00pm 17.1 14.8 9.0 59 4.3 ENE 11 20 6 11 1016.1 1015.1 0.0
24/01:30pm 16.8 14.0 8.5 58 4.4 ENE 13 19 7 10 1016.4 1015.4 0.0
24/01:00pm 16.6 13.7 8.3 58 4.3 NE 13 20 7 11 1016.8 1015.8 0.0
24/12:30pm 16.4 13.1 8.1 58 4.3 ENE 15 20 8 11 1017.2 1016.3 0.0
24/12:00pm 16.0 12.8 7.0 55 4.6 ENE 13 20 7 11 1017.8 1016.8 0.0
24/11:30am 15.6 12.3 6.6 55 4.5 E 13 19 7 10 1018.4 1017.4 0.0
24/11:00am 15.3 12.4 6.6 56 4.4 E 11 19 6 10 1018.6 1017.6 0.0
24/10:30am 15.5 11.3 7.3 58 4.2 ENE 19 24 10 13 1018.6 1017.6 0.0
24/10:00am 14.9 10.4 6.2 56 4.3 ENE 19 28 10 15 1019.1 1018.2 0.0
24/09:30am 14.8 11.2 6.6 58 4.1 ENE 15 22 8 12 1019.5 1018.5 0.0
24/09:00am 14.0 10.7 6.4 60 3.7 ENE 13 22 7 12 1019.5 1018.5 0.2
24/08:30am 13.6 9.9 6.5 62 3.5 E 15 19 8 10 1019.5 1018.5 0.2
24/08:00am 13.4 10.2 6.7 64 3.3 E 13 15 7 8 1019.0 1018.1 0.2
24/07:30am 13.2 10.0 6.8 65 3.2 E 13 19 7 10 1018.8 1017.9 0.2
24/07:00am 13.1 10.2 6.7 65 3.2 ENE 11 15 6 8 1018.5 1017.5 0.2
24/06:30am 13.0 9.7 6.6 65 3.2 ENE 13 19 7 10 1018.0 1017.0 0.2
24/06:00am 13.0 10.2 6.8 66 3.1 E 11 13 6 7 1018.0 1017.0 0.2
24/05:30am 13.0 10.6 7.0 67 3.0 E 9 15 5 8 1018.0 1017.0 0.2
24/05:00am 13.4 9.8 6.7 64 3.3 E 15 19 8 10 1018.0 1017.0 0.2
24/04:30am 13.4 11.0 7.0 65 3.2 E 9 15 5 8 1017.9 1016.9 0.2
24/04:00am 13.5 11.1 7.1 65 3.2 E 9 15 5 8 1017.9 1016.9 0.2
24/03:30am 13.5 11.2 7.3 66 3.1 E 9 13 5 7 1017.9 1016.9 0.2
24/03:00am 13.7 11.3 7.2 65 3.3 E 9 13 5 7 1017.9 1016.9 0.2
24/02:30am 13.9 11.2 7.4 65 3.3 E 11 15 6 8 1017.8 1016.8 0.2
24/02:00am 14.0 11.7 7.3 64 3.4 E 9 17 5 9 1017.8 1016.8 0.2
24/01:30am 14.2 10.3 7.0 62 3.6 E 17 22 9 12 1018.2 1017.2 0.2
24/01:00am 14.5 11.8 7.3 62 3.6 ESE 11 19 6 10 1018.4 1017.4 0.2
24/12:30am 14.8 12.5 7.6 62 3.7 ESE 9 17 5 9 1018.5 1017.5 0.2
24/12:00am 15.2 12.2 7.7 61 3.8 ESE 13 20 7 11 1018.7 1017.7 0.2
 
Date/Time
WST
Temp
°C
App
Temp
°C
Dew
Point
°C
Rel
Hum
%
Delta-T
°C
Wind Press
QNH
hPa
Press
MSL
hPa
Rain since
9am
mm
Dir  Spd
km/h
Gust
km/h
Spd
kts
Gust
kts
23/11:30pm 15.4 12.4 7.9 61 3.9 ESE 13 20 7 11 1018.9 1018.0 0.2

Other Formats:

Comma delimited format used in spreadsheet applications
http://www.bom.gov.au/fwo/IDW60801/IDW60801.94317.axf

JavaScript Object Notation format (JSON) in row-major order
http://www.bom.gov.au/fwo/IDW60801/IDW60801.94317.json